JES3502 SAZN-SASA
Flight info
| Callsign | JES3502 |
|---|---|
| Flight time | 1h 11m |
| Altitude | 36000 |
| Route | KOTOG3C KOTOG W37 ARVET UW37 SRA UW37 ESITO/N0454F350 UZ108 GILSA UW3 LAR UZ108 SORTI UW3 TUC UT675 ILPAR ILPAR2M |
| Aircraft | A320/M-SDE3FGHIRWY/LB1 |
Departure
| Time | 2026-05-05 15:26 |
|---|---|
| Airport | Presidente Perón International Airport (SAZN) |
Arrival
| Time | 2026-05-05 16:37 |
|---|---|
| Airport | Martín Miguel de Güemes International Airport (SASA) |
| Time | Latitude | Longitude | Altitude | Speed | Heading |
|---|---|---|---|---|---|
| 2026-05-05 14:58 | -38.95158 | -68.14157 | 904 ft | 0 kts | 180° |
| 2026-05-05 15:19 | -38.95143 | -68.14157 | 908 ft | 4 kts | 180° |
| 2026-05-05 15:19 | -38.95116 | -68.14157 | 907 ft | 4 kts | 180° |
| 2026-05-05 15:20 | -38.95088 | -68.14157 | 908 ft | 4 kts | 180° |
| 2026-05-05 15:20 | -38.95071 | -68.14156 | 904 ft | 0 kts | 180° |
| 2026-05-05 15:23 | -38.95077 | -68.14155 | 907 ft | 4 kts | 168° |
| 2026-05-05 15:23 | -38.95095 | -68.14112 | 904 ft | 6 kts | 98° |
| 2026-05-05 15:23 | -38.95096 | -68.14050 | 903 ft | 8 kts | 90° |
| 2026-05-05 15:23 | -38.95080 | -68.13980 | 905 ft | 9 kts | 39° |
| 2026-05-05 15:24 | -38.95024 | -68.14009 | 904 ft | 10 kts | 316° |
| 2026-05-05 15:24 | -38.94973 | -68.14075 | 905 ft | 11 kts | 315° |
| 2026-05-05 15:24 | -38.94913 | -68.14116 | 906 ft | 8 kts | 347° |
| 2026-05-05 15:24 | -38.94902 | -68.14149 | 906 ft | 0 kts | 267° |
| 2026-05-05 15:25 | -38.94904 | -68.14200 | 905 ft | 26 kts | 267° |
| 2026-05-05 15:25 | -38.94902 | -68.14769 | 901 ft | 99 kts | 271° |
| 2026-05-05 15:25 | -38.94899 | -68.15906 | 906 ft | 152 kts | 270° |
| 2026-05-05 15:25 | -38.94906 | -68.17399 | 1255 ft | 171 kts | 270° |
| 2026-05-05 15:26 | -38.94916 | -68.18945 | 1987 ft | 171 kts | 270° |
| 2026-05-05 15:26 | -38.94909 | -68.20502 | 2467 ft | 181 kts | 272° |
| 2026-05-05 15:26 | -38.94895 | -68.22219 | 2679 ft | 203 kts | 273° |
| 2026-05-05 15:26 | -38.94880 | -68.24143 | 2895 ft | 227 kts | 272° |
| 2026-05-05 15:27 | -38.94868 | -68.26207 | 3538 ft | 233 kts | 273° |
| 2026-05-05 15:27 | -38.94859 | -68.28294 | 4334 ft | 234 kts | 274° |
| 2026-05-05 15:27 | -38.94702 | -68.30391 | 4907 ft | 243 kts | 294° |
| 2026-05-05 15:27 | -38.93645 | -68.32095 | 5363 ft | 252 kts | 330° |
| 2026-05-05 15:28 | -38.91945 | -68.32627 | 6082 ft | 259 kts | 1° |
| 2026-05-05 15:28 | -38.90148 | -68.32238 | 6838 ft | 266 kts | 12° |
| 2026-05-05 15:28 | -38.88362 | -68.31534 | 7576 ft | 271 kts | 13° |
| 2026-05-05 15:28 | -38.86561 | -68.30771 | 8325 ft | 275 kts | 11° |
| 2026-05-05 15:29 | -38.84720 | -68.30038 | 9053 ft | 279 kts | 8° |
| 2026-05-05 15:29 | -38.82843 | -68.29364 | 9786 ft | 282 kts | 5° |
| 2026-05-05 15:29 | -38.80925 | -68.28738 | 10312 ft | 292 kts | 4° |
| 2026-05-05 15:29 | -38.78872 | -68.28124 | 10468 ft | 314 kts | 4° |
| 2026-05-05 15:30 | -38.76662 | -68.27493 | 10601 ft | 336 kts | 4° |
| 2026-05-05 15:30 | -38.74281 | -68.26812 | 11046 ft | 346 kts | 4° |
| 2026-05-05 15:30 | -38.69529 | -68.25425 | 12217 ft | 354 kts | 4° |
| 2026-05-05 15:30 | -38.64663 | -68.24009 | 13402 ft | 362 kts | 3° |
| 2026-05-05 15:31 | -38.59687 | -68.22571 | 14491 ft | 370 kts | 2° |
| 2026-05-05 15:31 | -38.54644 | -68.21114 | 15565 ft | 375 kts | 2° |
| 2026-05-05 15:31 | -38.49515 | -68.19651 | 16578 ft | 380 kts | 2° |
| 2026-05-05 15:31 | -38.44302 | -68.18467 | 17601 ft | 374 kts | 352° |
| 2026-05-05 15:32 | -38.39151 | -68.18716 | 18622 ft | 372 kts | 347° |
| 2026-05-05 15:32 | -38.33941 | -68.19023 | 19587 ft | 377 kts | 347° |
| 2026-05-05 15:32 | -38.28670 | -68.19320 | 20543 ft | 383 kts | 347° |
| 2026-05-05 15:32 | -38.23303 | -68.19622 | 21434 ft | 388 kts | 347° |
| 2026-05-05 15:33 | -38.17810 | -68.19936 | 22285 ft | 392 kts | 347° |
| 2026-05-05 15:33 | -38.12393 | -68.20253 | 23092 ft | 397 kts | 348° |
| 2026-05-05 15:33 | -38.06758 | -68.20568 | 23840 ft | 402 kts | 348° |
| 2026-05-05 15:33 | -38.01148 | -68.20880 | 24521 ft | 406 kts | 348° |
| 2026-05-05 15:34 | -37.97398 | -68.21095 | 24957 ft | 408 kts | 348° |
| 2026-05-05 15:34 | -37.91698 | -68.21427 | 25608 ft | 412 kts | 348° |
| 2026-05-05 15:34 | -37.85948 | -68.21751 | 26269 ft | 415 kts | 348° |
| 2026-05-05 15:34 | -37.80151 | -68.22077 | 26927 ft | 419 kts | 348° |
| 2026-05-05 15:35 | -37.74312 | -68.22404 | 27701 ft | 419 kts | 349° |
| 2026-05-05 15:35 | -37.68510 | -68.22724 | 28670 ft | 416 kts | 349° |
| 2026-05-05 15:35 | -37.60823 | -68.23153 | 29961 ft | 411 kts | 349° |
| 2026-05-05 15:35 | -37.57040 | -68.23364 | 30515 ft | 409 kts | 348° |
| 2026-05-05 15:36 | -37.51367 | -68.23682 | 31308 ft | 407 kts | 348° |
| 2026-05-05 15:36 | -37.45728 | -68.23998 | 32106 ft | 405 kts | 348° |
| 2026-05-05 15:36 | -37.40113 | -68.24312 | 32902 ft | 403 kts | 348° |
| 2026-05-05 15:36 | -37.34529 | -68.24633 | 33695 ft | 401 kts | 348° |
| 2026-05-05 15:37 | -37.28963 | -68.24943 | 34370 ft | 399 kts | 348° |
| 2026-05-05 15:37 | -37.23426 | -68.25243 | 34961 ft | 397 kts | 348° |
| 2026-05-05 15:37 | -37.17909 | -68.25545 | 35533 ft | 396 kts | 347° |
| 2026-05-05 15:37 | -37.12404 | -68.25848 | 35952 ft | 397 kts | 347° |
| 2026-05-05 15:38 | -37.06738 | -68.26180 | 35971 ft | 409 kts | 347° |
| 2026-05-05 15:38 | -36.95229 | -68.26822 | 35959 ft | 415 kts | 348° |
| 2026-05-05 15:39 | -36.83681 | -68.27453 | 35958 ft | 416 kts | 348° |
| 2026-05-05 15:39 | -36.72103 | -68.28089 | 35954 ft | 416 kts | 348° |
| 2026-05-05 15:40 | -36.60513 | -68.28725 | 35947 ft | 417 kts | 348° |
| 2026-05-05 15:40 | -36.48894 | -68.29346 | 35938 ft | 418 kts | 348° |
| 2026-05-05 15:41 | -36.37263 | -68.29987 | 35932 ft | 419 kts | 348° |
| 2026-05-05 15:41 | -36.25607 | -68.30623 | 35922 ft | 420 kts | 348° |
| 2026-05-05 15:42 | -36.13930 | -68.31264 | 35918 ft | 421 kts | 348° |
| 2026-05-05 15:42 | -36.02217 | -68.31888 | 35922 ft | 422 kts | 348° |
| 2026-05-05 15:43 | -35.90497 | -68.32532 | 35931 ft | 422 kts | 348° |
| 2026-05-05 15:43 | -35.78752 | -68.33173 | 35939 ft | 423 kts | 348° |
| 2026-05-05 15:44 | -35.66994 | -68.33769 | 35948 ft | 423 kts | 348° |
| 2026-05-05 15:44 | -35.55240 | -68.34412 | 35944 ft | 423 kts | 348° |
| 2026-05-05 15:45 | -35.43400 | -68.35043 | 35952 ft | 423 kts | 348° |
| 2026-05-05 15:45 | -35.31643 | -68.35663 | 35954 ft | 422 kts | 348° |
| 2026-05-05 15:46 | -35.19893 | -68.36293 | 35954 ft | 422 kts | 348° |
| 2026-05-05 15:46 | -35.08154 | -68.36905 | 35947 ft | 423 kts | 348° |
| 2026-05-05 15:47 | -34.96371 | -68.37534 | 35951 ft | 424 kts | 348° |
| 2026-05-05 15:47 | -34.84575 | -68.38144 | 35968 ft | 424 kts | 349° |
| 2026-05-05 15:48 | -34.72786 | -68.38766 | 35997 ft | 424 kts | 348° |
| 2026-05-05 15:48 | -34.61210 | -68.39477 | 35990 ft | 417 kts | 342° |
| 2026-05-05 15:48 | -34.55699 | -68.41705 | 35989 ft | 398 kts | 324° |
| 2026-05-05 15:49 | -34.50916 | -68.45043 | 35992 ft | 397 kts | 323° |
| 2026-05-05 15:49 | -34.41288 | -68.51653 | 35979 ft | 398 kts | 324° |
| 2026-05-05 15:50 | -34.31652 | -68.58275 | 35975 ft | 398 kts | 323° |
| 2026-05-05 15:50 | -34.22033 | -68.64873 | 35962 ft | 397 kts | 323° |
| 2026-05-05 15:51 | -34.12428 | -68.71436 | 35962 ft | 396 kts | 324° |
| 2026-05-05 15:51 | -34.02774 | -68.78042 | 35956 ft | 396 kts | 324° |
| 2026-05-05 15:52 | -33.93114 | -68.84399 | 35936 ft | 403 kts | 333° |
| 2026-05-05 15:52 | -33.87444 | -68.85385 | 35926 ft | 429 kts | 356° |
| 2026-05-05 15:52 | -33.81525 | -68.83552 | 35924 ft | 445 kts | 8° |
| 2026-05-05 15:53 | -33.69709 | -68.79070 | 35922 ft | 446 kts | 8° |
| 2026-05-05 15:53 | -33.57852 | -68.74603 | 35933 ft | 446 kts | 8° |
| 2026-05-05 15:54 | -33.46063 | -68.70139 | 36175 ft | 443 kts | 8° |
| 2026-05-05 15:54 | -33.40167 | -68.67935 | 36760 ft | 442 kts | 7° |
| 2026-05-05 15:54 | -33.34293 | -68.65747 | 36933 ft | 443 kts | 7° |
| 2026-05-05 15:55 | -33.22530 | -68.61324 | 36937 ft | 443 kts | 7° |
| 2026-05-05 15:55 | -33.12755 | -68.57669 | 36937 ft | 443 kts | 7° |
| 2026-05-05 15:56 | -33.02510 | -68.53857 | 36938 ft | 444 kts | 7° |
| 2026-05-05 15:56 | -32.90695 | -68.49474 | 36933 ft | 446 kts | 7° |
| 2026-05-05 15:57 | -32.78836 | -68.45074 | 36937 ft | 447 kts | 7° |
| 2026-05-05 15:57 | -32.66948 | -68.40685 | 36931 ft | 447 kts | 7° |
| 2026-05-05 15:58 | -32.55061 | -68.36297 | 36939 ft | 448 kts | 7° |
| 2026-05-05 15:58 | -32.43151 | -68.31925 | 36935 ft | 448 kts | 6° |
| 2026-05-05 15:59 | -32.31240 | -68.27561 | 36933 ft | 448 kts | 6° |
| 2026-05-05 15:59 | -32.19325 | -68.23197 | 36929 ft | 448 kts | 6° |
| 2026-05-05 16:00 | -32.07322 | -68.18837 | 36930 ft | 448 kts | 6° |
| 2026-05-05 16:00 | -31.95400 | -68.14505 | 36917 ft | 449 kts | 6° |
| 2026-05-05 16:01 | -31.84126 | -68.10412 | 36908 ft | 450 kts | 6° |
| 2026-05-05 16:01 | -31.72142 | -68.06080 | 36914 ft | 451 kts | 6° |
| 2026-05-05 16:02 | -31.60137 | -68.01751 | 36918 ft | 452 kts | 6° |
| 2026-05-05 16:02 | -31.48106 | -67.97431 | 36917 ft | 453 kts | 5° |
| 2026-05-05 16:03 | -31.36042 | -67.93103 | 36929 ft | 455 kts | 5° |
| 2026-05-05 16:03 | -31.23979 | -67.88787 | 36911 ft | 452 kts | 5° |
| 2026-05-05 16:04 | -31.11948 | -67.84497 | 36877 ft | 453 kts | 5° |
| 2026-05-05 16:04 | -30.99828 | -67.80179 | 36884 ft | 455 kts | 5° |
| 2026-05-05 16:05 | -30.87719 | -67.75874 | 36884 ft | 455 kts | 5° |
| 2026-05-05 16:05 | -30.75625 | -67.71596 | 36884 ft | 454 kts | 5° |
| 2026-05-05 16:06 | -30.65511 | -67.68027 | 36888 ft | 453 kts | 4° |
| 2026-05-05 16:06 | -30.53452 | -67.63757 | 36889 ft | 455 kts | 7° |
| 2026-05-05 16:06 | -30.47674 | -67.60226 | 36886 ft | 480 kts | 21° |
| 2026-05-05 16:07 | -30.42060 | -67.56017 | 36885 ft | 481 kts | 21° |
| 2026-05-05 16:07 | -30.30794 | -67.47673 | 36889 ft | 481 kts | 21° |
| 2026-05-05 16:08 | -30.19489 | -67.39329 | 36900 ft | 482 kts | 21° |
| 2026-05-05 16:08 | -30.08176 | -67.30990 | 36909 ft | 483 kts | 21° |
| 2026-05-05 16:09 | -29.96843 | -67.22643 | 36905 ft | 483 kts | 21° |
| 2026-05-05 16:09 | -29.85511 | -67.14328 | 36914 ft | 482 kts | 20° |
| 2026-05-05 16:10 | -29.74167 | -67.06042 | 36915 ft | 483 kts | 21° |
| 2026-05-05 16:10 | -29.63458 | -66.98220 | 36898 ft | 482 kts | 21° |
| 2026-05-05 16:11 | -29.52064 | -66.89946 | 36935 ft | 481 kts | 21° |
| 2026-05-05 16:12 | -29.29694 | -66.72841 | 36953 ft | 489 kts | 27° |
| 2026-05-05 16:13 | -29.02444 | -66.49851 | 36896 ft | 486 kts | 26° |
| 2026-05-05 16:13 | -28.91505 | -66.40741 | 36891 ft | 487 kts | 26° |
| 2026-05-05 16:14 | -28.69586 | -66.22558 | 36905 ft | 487 kts | 26° |
| 2026-05-05 16:15 | -28.47582 | -66.04413 | 36903 ft | 489 kts | 26° |
| 2026-05-05 16:16 | -28.25501 | -65.86289 | 36920 ft | 491 kts | 26° |
| 2026-05-05 16:17 | -28.08861 | -65.72705 | 36936 ft | 491 kts | 27° |
| 2026-05-05 16:18 | -27.92221 | -65.59163 | 36907 ft | 492 kts | 27° |
| 2026-05-05 16:19 | -27.75459 | -65.45568 | 36909 ft | 492 kts | 27° |
| 2026-05-05 16:19 | -27.69637 | -65.41829 | 36902 ft | 472 kts | 11° |
| 2026-05-05 16:19 | -27.57269 | -65.37308 | 36893 ft | 468 kts | 8° |
| 2026-05-05 16:20 | -27.32496 | -65.28240 | 36895 ft | 469 kts | 8° |
| 2026-05-05 16:22 | -27.02584 | -65.17343 | 36924 ft | 470 kts | 8° |
| 2026-05-05 16:23 | -26.77614 | -65.10755 | 36934 ft | 447 kts | 350° |
| 2026-05-05 16:23 | -26.58927 | -65.10485 | 36919 ft | 448 kts | 351° |
| 2026-05-05 16:24 | -26.46434 | -65.10312 | 36593 ft | 450 kts | 352° |
| 2026-05-05 16:24 | -26.33826 | -65.10152 | 33802 ft | 462 kts | 353° |
| 2026-05-05 16:25 | -26.27302 | -65.10066 | 31933 ft | 473 kts | 354° |
| 2026-05-05 16:25 | -26.14052 | -65.09863 | 28923 ft | 470 kts | 355° |
| 2026-05-05 16:25 | -26.07581 | -65.09761 | 27690 ft | 461 kts | 355° |
| 2026-05-05 16:26 | -25.94911 | -65.09594 | 25254 ft | 446 kts | 356° |
| 2026-05-05 16:26 | -25.82661 | -65.09418 | 22867 ft | 434 kts | 357° |
| 2026-05-05 16:27 | -25.76710 | -65.09337 | 21866 ft | 422 kts | 357° |
| 2026-05-05 16:27 | -25.70928 | -65.09606 | 20875 ft | 408 kts | 345° |
| 2026-05-05 16:27 | -25.65800 | -65.11952 | 19899 ft | 395 kts | 326° |
| 2026-05-05 16:27 | -25.61112 | -65.15055 | 18893 ft | 391 kts | 327° |
| 2026-05-05 16:28 | -25.56432 | -65.18102 | 17802 ft | 389 kts | 328° |
| 2026-05-05 16:28 | -25.51782 | -65.21114 | 16726 ft | 384 kts | 328° |
| 2026-05-05 16:28 | -25.47208 | -65.24085 | 15657 ft | 380 kts | 328° |
| 2026-05-05 16:28 | -25.42667 | -65.27045 | 14570 ft | 377 kts | 328° |
| 2026-05-05 16:29 | -25.38160 | -65.29980 | 13455 ft | 374 kts | 328° |
| 2026-05-05 16:29 | -25.33712 | -65.32868 | 12391 ft | 368 kts | 328° |
| 2026-05-05 16:29 | -25.29322 | -65.35714 | 11335 ft | 364 kts | 328° |
| 2026-05-05 16:29 | -25.24998 | -65.38519 | 10762 ft | 350 kts | 328° |
| 2026-05-05 16:30 | -25.22271 | -65.40285 | 10599 ft | 336 kts | 328° |
| 2026-05-05 16:31 | -25.20737 | -65.41451 | 10379 ft | 326 kts | 323° |
| 2026-05-05 16:31 | -25.18827 | -65.42787 | 10152 ft | 321 kts | 328° |
| 2026-05-05 16:31 | -25.16920 | -65.43986 | 10027 ft | 312 kts | 329° |
| 2026-05-05 16:31 | -25.15034 | -65.45132 | 9796 ft | 307 kts | 330° |
| 2026-05-05 16:32 | -25.13177 | -65.46269 | 9448 ft | 302 kts | 329° |
| 2026-05-05 16:32 | -25.11377 | -65.47393 | 9102 ft | 292 kts | 329° |
| 2026-05-05 16:32 | -25.09649 | -65.48493 | 8773 ft | 282 kts | 329° |
| 2026-05-05 16:32 | -25.07980 | -65.49568 | 8433 ft | 274 kts | 329° |
| 2026-05-05 16:33 | -25.06340 | -65.50633 | 8100 ft | 266 kts | 329° |
| 2026-05-05 16:33 | -25.04788 | -65.51643 | 7773 ft | 259 kts | 330° |
| 2026-05-05 16:33 | -25.03102 | -65.52296 | 7404 ft | 252 kts | 356° |
| 2026-05-05 16:33 | -25.01392 | -65.52098 | 7067 ft | 245 kts | 12° |
| 2026-05-05 16:34 | -24.99752 | -65.51737 | 6727 ft | 234 kts | 12° |
| 2026-05-05 16:34 | -24.98193 | -65.51392 | 6337 ft | 224 kts | 12° |
| 2026-05-05 16:34 | -24.96710 | -65.51064 | 6004 ft | 208 kts | 12° |
| 2026-05-05 16:34 | -24.95354 | -65.50764 | 5746 ft | 187 kts | 12° |
| 2026-05-05 16:35 | -24.94157 | -65.50501 | 5497 ft | 166 kts | 11° |
| 2026-05-05 16:35 | -24.93061 | -65.50261 | 5278 ft | 157 kts | 11° |
| 2026-05-05 16:35 | -24.92007 | -65.50029 | 5080 ft | 153 kts | 11° |
| 2026-05-05 16:35 | -24.90972 | -65.49802 | 4888 ft | 152 kts | 11° |
| 2026-05-05 16:36 | -24.89942 | -65.49559 | 4710 ft | 152 kts | 12° |
| 2026-05-05 16:36 | -24.88905 | -65.49333 | 4466 ft | 152 kts | 12° |
| 2026-05-05 16:36 | -24.87868 | -65.49109 | 4184 ft | 152 kts | 11° |
| 2026-05-05 16:36 | -24.86841 | -65.48886 | 4019 ft | 144 kts | 12° |
| 2026-05-05 16:37 | -24.85994 | -65.48709 | 4019 ft | 100 kts | 11° |
| 2026-05-05 16:37 | -24.85463 | -65.48596 | 4018 ft | 62 kts | 11° |
| 2026-05-05 16:37 | -24.85125 | -65.48523 | 4017 ft | 31 kts | 11° |
| 2026-05-05 16:37 | -24.84930 | -65.48482 | 4018 ft | 23 kts | 11° |
| 2026-05-05 16:38 | -24.84790 | -65.48449 | 4018 ft | 19 kts | 12° |
| 2026-05-05 16:38 | -24.84671 | -65.48390 | 4017 ft | 20 kts | 47° |
| 2026-05-05 16:38 | -24.84596 | -65.48288 | 4017 ft | 16 kts | 70° |
| 2026-05-05 16:38 | -24.84560 | -65.48165 | 4017 ft | 18 kts | 72° |
| 2026-05-05 16:39 | -24.84534 | -65.48078 | 4017 ft | 15 kts | 72° |
| 2026-05-05 16:39 | -24.84509 | -65.47992 | 4017 ft | 7 kts | 72° |
| 2026-05-05 16:39 | -24.84474 | -65.47953 | 4017 ft | 2 kts | 19° |
| 2026-05-05 16:39 | -24.84464 | -65.47948 | 4017 ft | 0 kts | 20° |